This is the latest recevied weather packets stored in our database for station/object AD7ZD. If no packets are shown the sender has not sent any weather packets the latest 10 day(s).
| Time | Temp. | Humidity | Pressure | Rain* | Wind** | Luminosity | Snow |
|---|---|---|---|---|---|---|---|
| 1777696776 | 16.67° C | 17% | 1013.3 hPa | 0 mm | - | 0 W/m² | - |
| 1777696474 | 16.67° C | 17% | 1013.3 hPa | 0 mm | - | 0 W/m² | - |
| 1777696173 | 16.67° C | 17% | 1013.3 hPa | 0 mm | - | 0 W/m² | - |
| 1777695871 | 16.67° C | 17% | 1013.1 hPa | 0 mm | - | 0 W/m² | - |
| 1777695567 | 16.67° C | 16% | 1013.3 hPa | 0 mm | - | 0 W/m² | - |
| 1777695266 | 16.67° C | 16% | 1013 hPa | 0 mm | - | 0 W/m² | - |
| 1777694962 | 16.67° C | 16% | 1013.1 hPa | 0 mm | - | 0 W/m² | - |
| 1777694659 | 16.11° C | 17% | 1012.9 hPa | 0 mm | - | 0 W/m² | - |
| 1777694355 | 16.67° C | 16% | 1013 hPa | 0 mm | - | 0 W/m² | - |
| 1777694052 | 17.22° C | 16% | 1012.8 hPa | 0 mm | - | 0 W/m² | - |
| 1777693749 | 17.78° C | 15% | 1012.8 hPa | 0 mm | - | 0 W/m² | - |
| 1777693448 | 17.78° C | 15% | 1012.7 hPa | 0 mm | - | 0 W/m² | - |
| 1777693146 | 17.22° C | 15% | 1012.6 hPa | 0 mm | - | 0 W/m² | - |
| 1777692843 | 16.67° C | 18% | 1012.7 hPa | 0 mm | - | 0 W/m² | - |
| 1777692540 | 18.33° C | 14% | 1012.6 hPa | 0 mm | - | 0 W/m² | - |
| 1777692236 | 17.22° C | 16% | 1012.3 hPa | 0 mm | - | 0 W/m² | - |
| 1777691933 | 17.22° C | 20% | 1012.3 hPa | 0 mm | - | 0 W/m² | - |
| 1777691632 | 18.33° C | 19% | 1012.2 hPa | 0 mm | - | 0 W/m² | - |
| 1777691329 | 18.89° C | 14% | 1012.3 hPa | 0 mm | - | 0 W/m² | - |
| 1777691028 | 18.89° C | 14% | 1012.3 hPa | 0 mm | - | 0 W/m² | - |
| 1777690725 | 19.44° C | 13% | 1012.1 hPa | 0 mm | - | 0 W/m² | - |
| 1777690422 | 20° C | 13% | 1012.3 hPa | 0 mm | - | 0 W/m² | - |
| 1777690120 | 20° C | 13% | 1012.2 hPa | 0 mm | - | 0 W/m² | - |
| 1777689817 | 20° C | 13% | 1012.2 hPa | 0 mm | - | 1 W/m² | - |
| 1777689515 | 20.56° C | 12% | 1012.2 hPa | 0 mm | - | 4 W/m² | - |
* Rain latest hour (hover to see other rain measurements)
** Current wind speed in m/s (hover to see current wind gust speed)